.
WxDataArchive / Data Records for 2012-08-26
2012-08-25 August 2012 2012-08-27

Data Records for Sunday, 26 August 2012

Time	Temp	Chill	HIndex	Humid	Dewpt	 Wind 	HiWind	WindDir	Rain 	Barom 
-----	----	-----	------	-----	-----	------	------	-------	-----	----- 
00:00	70.9	70.9	70.9	77	63.3	0	0	---	0.00	30.045 
00:05	70.9	70.9	70.9	77	63.3	0	0	---	0.00	30.045 
00:10	70.8	70.8	70.8	77	63.2	0	0	---	0.00	30.045 
00:15	70.6	70.6	70.6	77	63.0	0	0	---	0.00	30.042 
00:20	70.4	70.4	70.4	78	63.2	0	0	---	0.00	30.042 
00:25	70.3	70.3	70.3	78	63.1	0	0	---	0.00	30.042 
00:30	70.1	70.1	70.1	79	63.3	0	0	---	0.00	30.039 
00:35	69.9	69.9	69.9	79	63.1	0	0	---	0.00	30.039 
00:40	69.8	69.8	69.8	79	63.0	0	0	---	0.00	30.039 
00:45	69.6	69.6	69.6	79	62.8	0	0	---	0.00	30.037 
00:50	69.4	69.4	69.4	80	63.0	0	0	---	0.00	30.037 
00:55	69.3	69.3	69.3	80	62.9	0	0	---	0.00	30.037 
01:00	69.1	69.1	69.1	79	62.3	0	0	---	0.00	30.040 
01:05	68.9	68.9	68.9	79	62.1	0	0	---	0.00	30.040 
01:10	68.8	68.8	68.8	79	62.0	0	0	---	0.00	30.040 
01:15	68.6	68.6	68.6	79	61.8	0	0	---	0.00	30.043 
01:20	68.6	68.6	68.6	79	61.8	0	0	---	0.00	30.043 
01:25	68.6	68.6	68.6	79	61.8	0	0	---	0.00	30.043 
01:30	68.4	68.4	68.4	79	61.6	0	0	---	0.00	30.044 
01:35	68.6	68.6	68.6	78	61.5	0	1	135	0.00	30.044 
01:40	68.8	68.8	68.8	77	61.3	0	1	135	0.00	30.044 
01:45	69.1	69.1	69.1	75	60.8	0	2	135	0.00	30.042 
01:50	69.6	69.6	69.6	74	60.9	0	1	135	0.00	30.042 
01:55	69.6	69.6	69.6	74	60.9	0	0	---	0.00	30.042 
02:00	69.6	69.6	69.6	74	60.9	0	0	---	0.00	30.041 
02:05	69.6	69.6	69.6	74	60.9	0	1	135	0.00	30.041 
02:10	69.6	69.6	69.6	74	60.9	0	1	135	0.00	30.041 
02:15	69.6	69.6	69.6	74	60.9	0	0	---	0.00	30.037 
02:20	69.4	69.4	69.4	74	60.7	0	0	---	0.00	30.037 
02:25	69.3	69.3	69.3	74	60.6	0	0	---	0.00	30.037 
02:30	68.9	68.9	68.9	75	60.6	0	0	---	0.00	30.034 
02:35	68.6	68.6	68.6	75	60.3	0	0	---	0.00	30.034 
02:40	68.4	68.4	68.4	76	60.5	0	0	---	0.00	30.034 
02:45	68.1	68.1	68.1	76	60.2	0	0	---	0.00	30.036 
02:50	67.8	67.8	67.8	77	60.3	0	0	---	0.00	30.036 
02:55	67.4	67.4	67.4	77	59.9	0	0	---	0.00	30.036 
03:00	67.3	67.3	67.3	78	60.2	0	0	---	0.00	30.037 
03:05	66.9	66.9	66.9	79	60.2	0	0	---	0.00	30.037 
03:10	66.8	66.8	66.8	80	60.4	0	1	135	0.00	30.037 
03:15	66.4	66.4	66.4	81	60.4	0	0	---	0.00	30.037 
03:20	66.3	66.3	66.3	81	60.3	0	0	---	0.00	30.037 
03:25	66.3	66.3	66.3	81	60.3	0	0	---	0.00	30.037 
03:30	66.1	66.1	66.1	81	60.1	0	0	---	0.00	30.037 
03:35	66.1	66.1	66.1	81	60.1	0	0	---	0.00	30.037 
03:40	66.0	66.0	66.0	81	60.0	0	0	---	0.00	30.037 
03:45	65.8	65.8	65.8	82	60.1	0	0	---	0.00	30.037 
03:50	65.5	65.5	65.5	82	59.9	0	0	---	0.00	30.037 
03:55	65.3	65.3	65.3	82	59.7	0	0	---	0.00	30.037 
04:00	65.3	65.3	65.3	83	60.0	0	0	---	0.00	30.039 
04:05	65.2	65.2	65.2	83	59.9	0	0	---	0.00	30.039 
04:10	65.0	65.0	65.0	84	60.0	0	0	---	0.00	30.039 
04:15	64.8	64.8	64.8	84	59.8	0	0	---	0.00	30.039 
04:20	64.8	64.8	64.8	84	59.8	0	0	---	0.00	30.039 
04:25	64.7	64.7	64.7	84	59.7	0	0	---	0.00	30.039 
04:30	64.5	64.5	64.5	84	59.6	0	0	---	0.00	30.040 
04:35	64.5	64.5	64.5	84	59.6	0	0	---	0.00	30.040 
04:40	64.3	64.3	64.3	84	59.4	0	0	---	0.00	30.040 
04:45	64.2	64.2	64.2	85	59.6	0	0	---	0.00	30.043 
04:50	64.2	64.2	64.2	85	59.6	0	0	---	0.00	30.043 
04:55	64.0	64.0	64.0	85	59.4	0	0	---	0.00	30.043 
05:00	64.0	64.0	64.0	85	59.4	0	0	---	0.00	30.045 
05:05	63.9	63.9	63.9	85	59.3	0	0	---	0.00	30.045 
05:10	63.9	63.9	63.9	85	59.3	0	0	---	0.00	30.045 
05:15	63.9	63.9	63.9	85	59.3	0	1	135	0.00	30.052 
05:20	63.7	63.7	63.7	86	59.4	0	0	---	0.00	30.052 
05:25	63.7	63.7	63.7	86	59.4	0	0	---	0.00	30.052 
05:30	63.5	63.5	63.5	86	59.2	0	0	---	0.00	30.053 
05:35	63.5	63.5	63.5	86	59.2	0	0	---	0.00	30.053 
05:40	63.4	63.4	63.4	86	59.1	0	0	---	0.00	30.053 
05:45	63.4	63.4	63.4	86	59.1	0	0	---	0.00	30.056 
05:50	63.2	63.2	63.2	86	58.9	0	0	---	0.00	30.056 
05:55	63.2	63.2	63.2	87	59.3	0	0	---	0.00	30.056 
06:00	63.1	63.1	63.1	87	59.2	0	0	---	0.00	30.062 
06:05	63.1	63.1	63.1	87	59.2	0	0	---	0.00	30.062 
06:10	62.9	62.9	62.9	87	59.0	0	1	135	0.00	30.062 
06:15	63.1	63.1	63.1	87	59.2	0	1	135	0.00	30.072 
06:20	63.1	63.1	63.1	87	59.2	0	0	---	0.00	30.072 
06:25	63.1	63.1	63.1	87	59.2	0	0	---	0.00	30.072 
06:30	62.9	62.9	62.9	87	59.0	0	0	---	0.00	30.072 
06:35	62.9	62.9	62.9	87	59.0	0	0	---	0.00	30.072 
06:40	62.7	62.7	62.7	87	58.8	0	0	---	0.00	30.072 
06:45	62.7	62.7	62.7	88	59.1	0	0	---	0.00	30.077 
06:50	62.6	62.6	62.6	88	59.0	0	0	---	0.00	30.077 
06:55	62.6	62.6	62.6	88	59.0	0	1	135	0.00	30.077 
07:00	62.4	62.4	62.4	88	58.8	0	0	---	0.00	30.082 
07:05	62.4	62.4	62.4	88	58.8	0	0	---	0.00	30.082 
07:10	62.3	62.3	62.3	88	58.7	0	0	---	0.00	30.082 
07:15	62.1	62.1	62.1	88	58.5	0	0	---	0.00	30.089 
07:20	62.1	62.1	62.1	88	58.5	0	0	---	0.00	30.089 
07:25	62.3	62.3	62.3	89	59.0	0	1	135	0.00	30.089 
07:30	62.6	62.6	62.6	89	59.3	0	1	135	0.00	30.088 
07:35	63.1	63.1	63.1	88	59.5	1	2	135	0.00	30.088 
07:40	63.4	63.4	63.4	87	59.5	0	1	135	0.00	30.088 
07:45	63.5	63.5	63.5	87	59.6	0	1	135	0.00	30.086 
07:50	63.9	63.9	63.9	87	59.9	0	0	---	0.00	30.086 
07:55	64.5	64.5	64.5	85	59.9	0	1	135	0.00	30.086 
08:00	65.0	65.0	65.0	84	60.0	0	0	---	0.00	30.089 
08:05	65.6	65.6	65.6	83	60.3	0	0	---	0.00	30.089 
08:10	66.4	66.4	66.4	81	60.4	0	1	135	0.00	30.089 
08:15	67.1	67.1	67.1	79	60.4	0	1	135	0.00	30.093 
08:20	67.9	67.9	67.9	77	60.4	0	1	135	0.00	30.093 
08:25	68.6	68.6	68.6	76	60.7	0	1	135	0.00	30.093 
08:30	69.3	69.3	69.3	75	61.0	0	1	135	0.00	30.091 
08:35	69.9	69.9	69.9	73	60.8	0	1	135	0.00	30.091 
08:40	70.4	70.4	70.4	72	60.9	0	0	---	0.00	30.091 
08:45	70.8	70.8	70.8	72	61.3	0	1	135	0.00	30.090 
08:50	70.9	70.9	70.9	71	61.0	0	1	135	0.00	30.090 
08:55	71.5	71.5	71.5	71	61.6	0	1	135	0.00	30.090 
09:00	72.0	72.0	72.0	70	61.7	0	2	135	0.00	30.089 
09:05	72.1	72.1	72.1	69	61.4	0	2	135	0.00	30.089 
09:10	72.1	72.1	72.1	69	61.4	1	5	135	0.00	30.089 
09:15	72.3	72.3	72.3	69	61.5	0	5	112	0.00	30.092 
09:20	72.8	72.8	72.8	69	62.0	0	1	112	0.00	30.092 
09:25	73.3	73.3	73.3	68	62.1	0	1	112	0.00	30.092 
09:30	73.9	73.9	73.9	66	61.8	0	2	112	0.00	30.090 
09:35	74.4	74.4	74.4	64	61.4	1	2	112	0.00	30.090 
09:40	74.7	74.7	74.7	64	61.7	0	1	112	0.00	30.090 
09:45	75.1	75.1	77.2	64	62.1	0	1	112	0.00	30.087 
09:50	75.3	75.3	77.4	64	62.3	0	1	112	0.00	30.087 
09:55	75.6	75.6	77.7	62	61.6	0	1	112	0.00	30.087 
10:00	76.0	76.0	78.0	62	62.0	0	2	112	0.00	30.088 
10:05	76.5	76.5	78.4	62	62.5	0	2	112	0.00	30.088 
10:10	77.0	77.0	78.8	61	62.5	0	1	112	0.00	30.088 
10:15	77.4	77.4	79.1	59	61.9	0	1	112	0.00	30.087 
10:20	77.6	77.6	79.3	59	62.1	0	1	112	0.00	30.087 
10:25	78.1	78.1	79.7	58	62.1	0	1	112	0.00	30.087 
10:30	78.6	78.6	80.1	57	62.1	0	2	112	0.00	30.084 
10:35	79.4	79.4	80.8	56	62.3	0	2	112	0.00	30.084 
10:40	80.1	80.1	81.3	54	61.9	0	2	112	0.00	30.084 
10:45	80.5	80.5	81.7	54	62.3	0	1	112	0.00	30.085 
10:50	80.5	80.5	81.8	55	62.8	0	1	112	0.00	30.085 
10:55	80.9	80.9	82.3	55	63.2	1	2	112	0.00	30.085 
11:00	81.6	81.6	82.9	54	63.3	0	1	112	0.00	30.085 
11:05	82.4	82.4	83.5	52	63.0	0	3	112	0.00	30.085 
11:10	83.2	83.2	84.5	52	63.7	0	3	112	0.00	30.085 
11:15	83.6	83.6	84.8	51	63.5	1	2	112	0.00	30.085 
11:20	83.8	83.8	85.1	51	63.7	0	3	112	0.00	30.085 
11:25	83.6	83.6	84.6	50	63.0	0	1	112	0.00	30.085 
11:30	83.6	83.6	84.6	50	63.0	0	2	112	0.00	30.085 
11:35	84.0	84.0	85.1	50	63.3	1	3	112	0.00	30.085 
11:40	84.5	84.5	86.0	51	64.4	0	2	112	0.00	30.085 
11:45	84.9	84.9	86.3	50	64.2	1	3	112	0.00	30.081 
11:50	85.1	85.1	86.6	50	64.3	1	2	112	0.00	30.081 
11:55	85.5	85.5	86.6	48	63.5	0	2	112	0.00	30.081 
12:00	85.9	85.9	87.2	48	63.9	1	3	112	0.00	30.078 
12:05	86.3	86.3	88.0	49	64.9	0	2	112	0.00	30.078 
12:10	86.7	86.7	88.1	47	64.0	1	2	112	0.00	30.078 
12:15	87.2	87.2	88.5	46	63.9	0	1	112	0.00	30.074 
12:20	87.6	87.6	89.1	46	64.2	1	3	112	0.00	30.074 
12:25	87.8	87.8	88.8	44	63.1	1	2	112	0.00	30.074 
12:30	88.0	88.0	90.0	47	65.2	0	1	270	0.00	30.068 
12:35	88.2	88.2	90.0	46	64.8	0	3	270	0.00	30.068 
12:40	88.2	88.2	89.7	45	64.1	1	4	90	0.00	30.068 
12:45	88.4	88.4	90.3	46	64.9	1	3	68	0.00	30.068 
12:50	88.2	88.2	89.3	44	63.5	1	3	112	0.00	30.068 
12:55	87.8	87.8	89.4	46	64.4	1	3	0	0.00	30.068 
13:00	87.6	87.6	89.1	46	64.2	2	3	270	0.00	30.067 
13:05	87.4	87.4	88.5	45	63.4	1	4	315	0.00	30.067 
13:10	87.0	87.0	87.9	45	63.1	1	3	248	0.00	30.067 
13:15	87.6	87.6	89.7	48	65.4	0	3	248	0.00	30.061 
13:20	88.2	88.2	89.7	45	64.1	1	3	45	0.00	30.061 
13:25	88.6	88.6	89.9	44	63.9	2	4	68	0.00	30.061 
13:30	88.8	88.8	90.2	44	64.0	1	4	68	0.00	30.052 
13:35	89.0	89.0	90.9	45	64.9	1	4	270	0.00	30.052 
13:40	89.7	89.7	92.4	46	66.1	1	4	90	0.00	30.052 
13:45	89.7	89.7	91.6	44	64.8	1	6	68	0.00	30.049 
13:50	89.9	89.9	92.3	45	65.7	1	4	315	0.00	30.049 
13:55	90.1	90.1	91.9	43	64.5	1	6	90	0.00	30.049 
14:00	90.1	90.1	91.5	42	63.9	1	4	90	0.00	30.047 
14:05	89.5	89.5	91.0	43	64.0	1	4	270	0.00	30.047 
14:10	89.9	89.9	91.9	44	65.0	1	4	68	0.00	30.047 
14:15	89.5	89.5	90.0	40	61.9	2	6	338	0.00	30.043 
14:20	89.3	89.3	91.7	46	65.8	1	5	270	0.00	30.043 
14:25	89.9	89.9	91.9	44	65.0	1	3	270	0.00	30.043 
14:30	90.1	90.1	92.3	44	65.2	1	3	0	0.00	30.037 
14:35	90.3	90.3	92.2	43	64.7	2	6	270	0.00	30.037 
14:40	90.1	90.1	91.5	42	63.9	2	6	90	0.00	30.037 
14:45	89.7	89.7	90.6	41	62.8	2	7	112	0.00	30.034 
14:50	89.3	89.3	89.4	39	61.0	2	6	112	0.00	30.034 
14:55	89.5	89.5	90.6	42	63.3	1	4	90	0.00	30.034 
15:00	89.5	89.5	91.0	43	64.0	2	5	90	0.00	30.032 
15:05	89.3	89.3	90.6	43	63.8	2	10	68	0.00	30.032 
15:10	89.5	89.5	91.7	45	65.3	0	4	315	0.00	30.032 
15:15	90.1	90.1	91.9	43	64.5	1	4	90	0.00	30.025 
15:20	90.5	90.5	92.2	42	64.2	1	5	270	0.00	30.025 
15:25	90.3	90.3	90.8	39	61.9	2	4	248	0.00	30.025 
15:30	90.3	90.3	91.8	42	64.0	1	7	68	0.00	30.022 
15:35	89.9	89.9	91.6	43	64.4	1	4	68	0.00	30.022 
15:40	89.7	89.7	90.9	42	63.5	1	5	45	0.00	30.022 
15:45	89.9	89.9	91.6	43	64.4	1	3	22	0.00	30.017 
15:50	90.3	90.3	91.5	41	63.4	1	5	90	0.00	30.017 
15:55	89.7	89.7	90.6	41	62.8	1	5	315	0.00	30.017 
16:00	88.6	88.6	89.6	43	63.2	1	4	270	0.00	30.013 
16:05	88.0	88.0	89.0	44	63.3	1	4	22	0.00	30.013 
16:10	87.8	87.8	89.1	45	63.8	1	4	292	0.00	30.013 
16:15	87.8	87.8	89.1	45	63.8	1	5	90	0.00	30.010 
16:20	88.0	88.0	89.4	45	64.0	1	3	90	0.00	30.010 
16:25	88.2	88.2	89.3	44	63.5	1	4	248	0.00	30.010 
16:30	88.4	88.4	90.6	47	65.6	1	3	315	0.00	30.005 
16:35	88.6	88.6	89.6	43	63.2	1	4	45	0.00	30.005 
16:40	88.2	88.2	89.3	44	63.5	1	3	248	0.00	30.005 
16:45	88.2	88.2	89.0	43	62.8	2	6	112	0.00	30.003 
16:50	88.0	88.0	89.0	44	63.3	1	4	248	0.00	30.003 
16:55	87.6	87.6	88.5	44	63.0	1	5	248	0.00	30.003 
17:00	87.6	87.6	89.1	46	64.2	0	2	292	0.00	30.001 
17:05	88.0	88.0	89.0	44	63.3	1	5	90	0.00	30.001 
17:10	88.2	88.2	89.3	44	63.5	1	3	292	0.00	30.001 
17:15	88.2	88.2	89.3	44	63.5	1	4	45	0.00	29.995 
17:20	87.8	87.8	89.1	45	63.8	1	3	270	0.00	29.995 
17:25	87.4	87.4	88.8	46	64.0	0	2	292	0.00	29.995 
17:30	87.2	87.2	88.2	45	63.2	1	5	90	0.00	29.993 
17:35	87.4	87.4	88.8	46	64.0	1	4	90	0.00	29.993 
17:40	87.6	87.6	88.8	45	63.6	1	3	68	0.00	29.993 
17:45	87.8	87.8	88.8	44	63.1	1	4	68	0.00	29.992 
17:50	87.8	87.8	88.8	44	63.1	0	2	112	0.00	29.992 
17:55	87.6	87.6	88.2	43	62.3	2	4	270	0.00	29.992 
18:00	87.6	87.6	88.5	44	63.0	0	2	270	0.00	29.990 
18:05	87.2	87.2	87.9	44	62.6	0	2	270	0.00	29.990 
18:10	86.5	86.5	86.7	43	61.3	1	3	0	0.00	29.990 
18:15	85.9	85.9	86.2	44	61.4	0	3	45	0.00	29.991 
18:20	85.7	85.7	86.2	45	61.9	0	2	45	0.00	29.991 
18:25	85.5	85.5	86.2	46	62.3	0	1	45	0.00	29.991 
18:30	85.5	85.5	85.7	44	61.1	0	2	0	0.00	29.986 
18:35	85.7	85.7	86.4	46	62.5	0	1	0	0.00	29.986 
18:40	85.7	85.7	86.2	45	61.9	0	1	0	0.00	29.986 
18:45	85.5	85.5	85.9	45	61.7	0	3	45	0.00	29.984 
18:50	85.3	85.3	85.9	46	62.1	0	1	45	0.00	29.984 
18:55	85.3	85.3	85.9	46	62.1	0	0	---	0.00	29.984 
19:00	85.3	85.3	85.9	46	62.1	0	1	45	0.00	29.985 
19:05	85.1	85.1	85.9	47	62.6	0	2	45	0.00	29.985 
19:10	84.9	84.9	85.4	46	61.8	0	1	45	0.00	29.985 
19:15	84.7	84.7	85.2	46	61.6	0	1	45	0.00	29.980 
19:20	84.5	84.5	84.9	46	61.4	0	1	45	0.00	29.980 
19:25	84.3	84.3	84.9	47	61.8	0	1	45	0.00	29.980 
19:30	84.1	84.1	85.3	50	63.4	1	5	270	0.00	29.983 
19:35	82.6	82.6	84.5	56	65.3	3	6	270	0.00	29.983 
19:40	80.9	80.9	82.9	60	65.7	3	5	270	0.00	29.983 
19:45	80.1	80.1	82.2	62	65.9	2	4	292	0.00	29.993 
19:50	79.4	79.4	81.5	64	66.1	1	3	292	0.00	29.993 
19:55	78.8	78.8	80.8	65	66.0	1	3	270	0.00	29.993 
20:00	78.3	78.3	80.2	65	65.5	2	4	292	0.00	29.989 
20:05	78.1	78.1	80.0	66	65.8	1	3	292	0.00	29.989 
20:10	77.9	77.9	79.8	67	66.0	0	2	292	0.00	29.989 
20:15	77.7	77.7	79.6	67	65.8	0	3	292	0.00	29.982 
20:20	77.7	77.7	79.6	67	65.8	0	1	292	0.00	29.982 
20:25	77.6	77.6	79.5	68	66.2	0	1	292	0.00	29.982 
20:30	77.4	77.4	79.2	68	66.0	0	1	292	0.00	29.984 
20:35	77.2	77.2	79.0	69	66.2	0	1	292	0.00	29.984 
20:40	77.0	77.0	78.8	69	66.0	0	0	---	0.00	29.984 
20:45	77.0	77.0	78.8	70	66.4	0	1	292	0.00	29.983 
20:50	76.8	76.8	78.5	71	66.7	0	1	292	0.00	29.983 
20:55	76.8	76.8	78.5	71	66.7	0	0	---	0.00	29.983 
21:00	76.8	76.8	78.5	72	67.1	0	0	---	0.00	29.982 
21:05	76.7	76.7	78.4	72	67.0	0	0	---	0.00	29.982 
21:10	76.7	76.7	78.3	73	67.4	0	0	---	0.00	29.982 
21:15	76.7	76.7	78.3	73	67.4	0	0	---	0.00	29.985 
21:20	76.5	76.5	78.1	73	67.2	0	0	---	0.00	29.985 
21:25	76.5	76.5	78.1	73	67.2	0	0	---	0.00	29.985 
21:30	76.5	76.5	78.1	74	67.6	0	0	---	0.00	29.988 
21:35	76.3	76.3	77.7	75	67.8	0	0	---	0.00	29.988 
21:40	76.3	76.3	77.7	75	67.8	0	0	---	0.00	29.988 
21:45	76.1	76.1	77.5	75	67.6	0	0	---	0.00	29.992 
21:50	76.1	76.1	77.5	75	67.6	0	0	---	0.00	29.992 
21:55	76.0	76.0	77.4	75	67.5	0	0	---	0.00	29.992 
22:00	76.0	76.0	77.4	75	67.5	0	0	---	0.00	29.998 
22:05	76.0	76.0	77.3	76	67.9	0	0	---	0.00	29.998 
22:10	76.0	76.0	77.3	76	67.9	0	0	---	0.00	29.998 
22:15	76.0	76.0	77.3	76	67.9	0	0	---	0.00	29.991 
22:20	75.8	75.8	77.0	76	67.7	0	0	---	0.00	29.991 
22:25	75.8	75.8	77.0	76	67.7	0	0	---	0.00	29.991 
22:30	75.8	75.8	77.0	76	67.7	0	0	---	0.00	29.989 
22:35	75.8	75.8	77.0	76	67.7	0	0	---	0.00	29.989 
22:40	75.8	75.8	77.0	77	68.1	0	0	---	0.00	29.989 
22:45	75.8	75.8	77.0	77	68.1	0	0	---	0.00	29.988 
22:50	75.8	75.8	77.0	77	68.1	0	0	---	0.00	29.988 
22:55	75.8	75.8	77.0	77	68.1	0	0	---	0.00	29.988 
23:00	75.8	75.8	76.9	78	68.4	0	0	---	0.00	29.988 
23:05	75.6	75.6	76.6	78	68.2	0	0	---	0.00	29.988 
23:10	75.6	75.6	76.6	78	68.2	0	0	---	0.00	29.988 
23:15	75.6	75.6	76.6	78	68.2	0	0	---	0.00	29.987 
23:20	75.4	75.4	76.3	78	68.0	0	0	---	0.00	29.987 
23:25	75.4	75.4	76.3	78	68.0	0	0	---	0.00	29.987 
23:30	75.4	75.4	76.3	78	68.0	0	1	292	0.00	29.986 
23:35	75.4	75.4	76.2	79	68.4	0	0	---	0.00	29.986 
23:40	75.3	75.3	76.1	79	68.3	0	0	---	0.00	29.986 
23:45	75.3	75.3	76.1	79	68.3	0	0	---	0.00	29.985 
23:50	75.1	75.1	75.8	79	68.1	0	0	---	0.00	29.985 
23:55	75.1	75.1	75.8	79	68.1	0	0	---	0.00	29.985 

CoCoRaHS
IN-AL-39
A2 Web Hosting
Creative Commons License
GoDaddy
search engine by freefind advanced

loaded 2018-11-16 10:54:15 • last modified 2010-11-18 10:43:29
Privacy PolicyDisclaimer
• wx.awcolley.com is powered by PmWiki v.2002016 •
• all content (unless otherwise noted) © 2018 A W Colley